Coniston, Canada
Current Conditions -  °F | °C
As of 1:00 PM on Friday 19 Dec 2014 (Local Time) from CYSB Reporting Station
Scattered Clouds Scattered Clouds  
Wind Chill: -16°   Ceiling: Unl
Heat Index: -10°   Visibility: 20mi
Dew Point: -13°   Wind: 8mph
Humidity: 79%   Direction: 20°NNE
Pressure: 30.2"   Gusts: NA
Location:  46.49°N, 80.85°W
Report Text: CYSB 191800Z 02007KT 20SM FEW005 FEW180 SCT240 M10/M13 A3020 RMK CF1AC1CI2 CF TR CC ASOCTD SLP255
Loading
Personal Weather Stations






























Interactive Weather Map New forecast layout! Learn more

10-Day Weather Forecast

Advertisements
Track Severe Weather on mobile